createdAt,value
2022-08-02T00:02:49.492Z,14.90
2022-08-02T00:05:54.249Z,14.90
2022-08-02T00:08:57.330Z,14.90
2022-08-02T00:12:00.331Z,14.90
2022-08-02T00:15:03.706Z,14.90
2022-08-02T00:18:06.785Z,14.80
2022-08-02T00:21:11.156Z,14.70
2022-08-02T00:24:29.046Z,14.60
2022-08-02T00:27:33.554Z,14.60
2022-08-02T00:30:36.522Z,14.60
2022-08-02T00:34:27.735Z,14.60
2022-08-02T00:37:03.833Z,14.60
2022-08-02T00:40:08.055Z,14.50
2022-08-02T00:43:12.445Z,14.50
2022-08-02T00:46:16.001Z,14.50
2022-08-02T00:49:19.004Z,14.50
2022-08-02T00:52:25.940Z,14.50
2022-08-02T00:55:31.421Z,14.50
2022-08-02T00:58:34.650Z,14.50
2022-08-02T01:01:55.908Z,14.50
2022-08-02T01:04:59.860Z,14.50
2022-08-02T01:08:04.896Z,14.50
2022-08-02T01:11:08.111Z,14.40
2022-08-02T01:14:13.923Z,14.40
2022-08-02T01:17:21.386Z,14.40
2022-08-02T01:20:47.248Z,14.40
2022-08-02T01:24:02.275Z,14.30
2022-08-02T01:27:22.000Z,14.30
2022-08-02T01:30:28.253Z,14.30
2022-08-02T01:33:40.215Z,14.20
2022-08-02T01:36:47.692Z,14.10
2022-08-02T01:39:55.426Z,14.10
2022-08-02T01:42:59.368Z,14.10
2022-08-02T01:46:04.923Z,14.20
2022-08-02T01:50:04.174Z,14.20
2022-08-02T01:53:10.522Z,14.20
2022-08-02T01:56:14.903Z,14.20
2022-08-02T01:59:21.464Z,14.20
2022-08-02T02:02:31.363Z,14.20
2022-08-02T02:05:36.782Z,14.20
2022-08-02T02:08:42.571Z,14.20
2022-08-02T02:12:12.171Z,14.10
2022-08-02T02:15:13.271Z,14.10
2022-08-02T02:18:24.205Z,13.90
2022-08-02T02:21:27.127Z,13.90
2022-08-02T02:24:30.190Z,13.90
2022-08-02T02:27:35.296Z,13.90
2022-08-02T02:30:42.461Z,13.90
2022-08-02T02:33:51.458Z,13.90
2022-08-02T02:36:54.913Z,13.90
2022-08-02T02:39:58.992Z,13.90
2022-08-02T02:43:02.764Z,13.80
2022-08-02T02:46:07.623Z,13.70
2022-08-02T02:49:13.383Z,13.70
2022-08-02T02:52:17.693Z,13.70
2022-08-02T02:55:23.654Z,13.70
2022-08-02T02:58:29.062Z,13.70
2022-08-02T03:01:55.581Z,13.60
2022-08-02T03:04:59.012Z,13.60
2022-08-02T03:08:02.032Z,13.60
2022-08-02T03:11:05.407Z,13.60
2022-08-02T03:14:12.254Z,13.60
2022-08-02T03:17:16.431Z,13.60
2022-08-02T03:20:22.612Z,13.60
2022-08-02T03:23:25.531Z,13.60
2022-08-02T03:26:28.443Z,13.60
2022-08-02T03:29:34.411Z,13.50
2022-08-02T03:32:39.914Z,13.60
2022-08-02T03:35:45.317Z,13.60
2022-08-02T03:38:48.826Z,13.60
2022-08-02T03:41:52.164Z,13.70
2022-08-02T03:44:56.136Z,13.70
2022-08-02T03:47:59.552Z,13.70
2022-08-02T03:51:04.221Z,13.70
2022-08-02T03:54:07.684Z,13.70
2022-08-02T03:57:11.530Z,13.70
2022-08-02T04:00:20.214Z,13.80
2022-08-02T04:03:23.273Z,13.70
2022-08-02T04:06:28.463Z,13.70
2022-08-02T04:09:31.611Z,13.70
2022-08-02T04:12:34.553Z,13.80
2022-08-02T04:15:39.836Z,13.80
2022-08-02T04:18:49.473Z,13.80
2022-08-02T04:21:54.658Z,13.90
2022-08-02T04:25:01.015Z,13.90
2022-08-02T04:28:17.178Z,13.90
2022-08-02T04:31:22.067Z,13.90
2022-08-02T04:34:25.192Z,13.90
2022-08-02T04:37:29.755Z,13.90
2022-08-02T04:40:32.663Z,13.90
2022-08-02T04:43:35.681Z,13.90
2022-08-02T04:46:38.900Z,13.90
2022-08-02T04:49:41.864Z,14.00
2022-08-02T04:52:46.196Z,14.00
2022-08-02T04:55:49.318Z,14.00
2022-08-02T04:58:52.189Z,14.00
2022-08-02T05:01:55.069Z,14.00
2022-08-02T05:04:57.958Z,13.90
2022-08-02T05:08:02.467Z,13.90
2022-08-02T05:11:05.368Z,13.80
2022-08-02T05:14:08.259Z,13.80
2022-08-02T05:17:11.169Z,13.80
2022-08-02T05:20:14.447Z,14.00
2022-08-02T05:23:18.738Z,14.10
2022-08-02T05:26:21.843Z,14.20
2022-08-02T05:29:24.777Z,14.30
2022-08-02T05:32:27.735Z,14.50
2022-08-02T05:35:30.611Z,14.60
2022-08-02T05:38:37.124Z,14.80
2022-08-02T05:41:40.531Z,14.90
2022-08-02T05:44:43.435Z,15.10
2022-08-02T05:47:46.340Z,15.30
2022-08-02T05:50:55.202Z,15.60
2022-08-02T05:54:19.139Z,16.10
2022-08-02T05:57:30.005Z,16.70
2022-08-02T06:00:35.368Z,17.30
2022-08-02T06:03:43.540Z,17.90
2022-08-02T06:06:53.091Z,18.20
2022-08-02T06:09:59.687Z,18.50
2022-08-02T06:13:08.614Z,18.80
2022-08-02T06:16:14.878Z,19.10
2022-08-02T06:19:19.681Z,19.40
2022-08-02T06:22:35.442Z,19.80
2022-08-02T06:25:49.813Z,19.80
2022-08-02T06:28:55.325Z,20.30
2022-08-02T06:31:59.316Z,20.20
2022-08-02T06:35:02.505Z,20.10
2022-08-02T06:38:05.802Z,20.20
2022-08-02T06:41:13.999Z,20.30
2022-08-02T06:44:45.695Z,20.40
2022-08-02T06:47:41.567Z,20.80
2022-08-02T06:50:44.605Z,20.70
2022-08-02T06:53:48.122Z,20.20
2022-08-02T06:56:52.397Z,19.60
2022-08-02T06:59:55.357Z,19.20
2022-08-02T07:02:58.540Z,19.00
2022-08-02T07:06:02.000Z,18.90
2022-08-02T07:09:21.875Z,18.80
2022-08-02T07:12:26.703Z,19.00
2022-08-02T07:15:29.571Z,19.20
2022-08-02T07:18:32.517Z,19.40
2022-08-02T07:21:57.774Z,19.50
2022-08-02T07:25:00.757Z,19.40
2022-08-02T07:28:05.665Z,19.20
2022-08-02T07:31:08.581Z,18.90
2022-08-02T07:34:11.586Z,18.80
2022-08-02T07:37:36.041Z,18.80
2022-08-02T07:40:37.794Z,18.50
2022-08-02T07:43:44.056Z,18.50
2022-08-02T07:46:47.022Z,18.60
2022-08-02T07:49:49.909Z,18.80
2022-08-02T07:52:53.634Z,18.90
2022-08-02T07:56:00.205Z,19.10
2022-08-02T07:59:05.041Z,19.20
2022-08-02T08:02:07.937Z,19.30
2022-08-02T08:05:11.975Z,19.50
2022-08-02T08:08:17.553Z,19.30
2022-08-02T08:11:20.792Z,19.20
2022-08-02T08:14:25.026Z,19.20
2022-08-02T08:17:27.954Z,19.30
2022-08-02T08:20:30.875Z,19.40
2022-08-02T08:23:35.338Z,19.40
2022-08-02T08:26:39.814Z,19.50
2022-08-02T08:29:45.879Z,19.60
2022-08-02T08:32:49.070Z,19.60
2022-08-02T08:35:52.003Z,19.70
2022-08-02T08:38:54.994Z,19.90
2022-08-02T08:41:58.067Z,20.20
2022-08-02T08:45:02.500Z,20.30
2022-08-02T08:48:12.682Z,20.30
2022-08-02T08:51:19.243Z,20.20
2022-08-02T08:54:24.976Z,20.10
2022-08-02T08:57:29.582Z,20.10
2022-08-02T09:00:35.511Z,20.10
2022-08-02T09:03:38.418Z,20.20
2022-08-02T09:06:41.356Z,20.30
2022-08-02T09:09:44.702Z,20.50
2022-08-02T09:12:47.608Z,20.70
2022-08-02T09:15:57.006Z,20.70
2022-08-02T09:19:01.706Z,20.70
2022-08-02T09:22:07.842Z,20.70
2022-08-02T09:25:16.726Z,20.60
2022-08-02T09:28:19.618Z,20.70
2022-08-02T09:31:24.830Z,20.70
2022-08-02T09:34:44.072Z,20.70
2022-08-02T09:37:48.760Z,20.80
2022-08-02T09:40:51.723Z,20.90
2022-08-02T09:44:05.373Z,21.00
2022-08-02T09:47:18.047Z,21.10
2022-08-02T09:50:21.098Z,21.20
2022-08-02T09:53:24.678Z,21.30
2022-08-02T09:56:35.421Z,21.40
2022-08-02T09:59:39.015Z,21.40
2022-08-02T10:03:06.789Z,21.50
2022-08-02T10:06:09.935Z,21.50
2022-08-02T10:09:14.481Z,21.60
2022-08-02T10:12:17.477Z,21.60
2022-08-02T10:15:24.543Z,21.70
2022-08-02T10:18:40.909Z,21.80
2022-08-02T10:21:47.421Z,22.00
2022-08-02T10:24:51.381Z,22.10
2022-08-02T10:28:05.298Z,22.20
2022-08-02T10:31:10.551Z,22.20
2022-08-02T10:34:19.415Z,22.30
2022-08-02T10:37:23.947Z,22.40
2022-08-02T10:40:44.478Z,22.50
2022-08-02T10:43:49.881Z,22.70
2022-08-02T10:46:53.334Z,22.90
2022-08-02T10:49:59.061Z,22.90
2022-08-02T10:53:26.761Z,23.00
2022-08-02T10:56:47.851Z,23.00
2022-08-02T10:59:52.245Z,23.10
2022-08-02T11:02:55.241Z,23.10
2022-08-02T11:06:04.320Z,23.30
2022-08-02T11:09:31.482Z,23.30
2022-08-02T11:13:03.533Z,23.40
2022-08-02T11:16:11.163Z,23.50
2022-08-02T11:19:14.774Z,23.60
2022-08-02T11:22:25.130Z,23.80
2022-08-02T11:26:02.263Z,23.80
2022-08-02T11:29:01.646Z,23.90
2022-08-02T11:32:05.437Z,24.10
2022-08-02T11:35:09.518Z,24.30
2022-08-02T11:38:17.748Z,24.40
2022-08-02T11:41:46.668Z,24.50
2022-08-02T11:44:46.587Z,24.70
2022-08-02T11:47:51.822Z,24.80
2022-08-02T11:51:04.827Z,25.00
2022-08-02T11:54:07.756Z,25.10
2022-08-02T11:57:19.243Z,25.20
2022-08-02T12:00:30.538Z,25.30
2022-08-02T12:03:38.585Z,25.30
2022-08-02T12:06:41.609Z,25.50
2022-08-02T12:09:44.531Z,25.60
2022-08-02T12:12:51.886Z,25.70
2022-08-02T12:16:19.056Z,25.80
2022-08-02T12:19:23.574Z,25.80
2022-08-02T12:22:27.952Z,25.90
2022-08-02T12:25:33.995Z,26.10
2022-08-02T12:28:40.175Z,26.20
2022-08-02T12:31:56.365Z,26.30
2022-08-02T12:35:09.873Z,26.50
2022-08-02T12:38:13.356Z,26.50
2022-08-02T12:41:31.290Z,26.70
2022-08-02T12:44:36.931Z,26.90
2022-08-02T12:47:48.848Z,27.10
2022-08-02T12:50:51.747Z,27.30
2022-08-02T12:53:59.828Z,27.40
2022-08-02T12:57:11.633Z,27.90
2022-08-02T13:00:24.923Z,28.50
2022-08-02T13:04:09.182Z,29.10
2022-08-02T13:06:52.942Z,29.50
2022-08-02T13:10:00.236Z,29.30
2022-08-02T13:13:06.744Z,29.00
2022-08-02T13:16:10.782Z,29.00
2022-08-02T13:19:16.118Z,28.90
2022-08-02T13:22:19.206Z,28.60
2022-08-02T13:25:23.189Z,28.50
2022-08-02T13:28:26.159Z,28.50
2022-08-02T13:31:36.499Z,28.40
2022-08-02T13:34:41.154Z,28.20
2022-08-02T13:37:45.342Z,28.00
2022-08-02T13:41:05.986Z,27.90
2022-08-02T13:44:10.781Z,28.00
2022-08-02T13:47:14.061Z,27.90
2022-08-02T13:50:31.176Z,27.80
2022-08-02T13:53:34.087Z,27.70
2022-08-02T13:56:37.073Z,27.70
2022-08-02T13:59:56.222Z,27.70
2022-08-02T14:03:00.814Z,27.60
2022-08-02T14:06:06.772Z,27.40
2022-08-02T14:09:09.663Z,27.30
2022-08-02T14:12:18.713Z,27.30
2022-08-02T14:15:21.774Z,27.20
2022-08-02T14:18:24.682Z,27.10
2022-08-02T14:21:28.967Z,27.10
2022-08-02T14:24:48.999Z,27.10
2022-08-02T14:27:51.914Z,27.10
2022-08-02T14:30:54.839Z,27.10
2022-08-02T14:33:57.726Z,27.10
2022-08-02T14:37:01.953Z,27.10
2022-08-02T14:40:05.683Z,27.10
2022-08-02T14:43:08.600Z,27.00
2022-08-02T14:46:12.818Z,26.90
2022-08-02T14:49:24.738Z,26.80
2022-08-02T14:52:30.738Z,26.90
2022-08-02T14:55:33.633Z,26.80
2022-08-02T14:58:36.574Z,26.70
2022-08-02T15:01:40.034Z,26.70
2022-08-02T15:04:43.902Z,26.70
2022-08-02T15:07:49.801Z,26.70
2022-08-02T15:10:52.800Z,26.70
2022-08-02T15:13:59.048Z,26.70
2022-08-02T15:17:02.825Z,26.80
2022-08-02T15:20:25.544Z,26.70
2022-08-02T15:23:37.617Z,26.70
2022-08-02T15:26:41.514Z,26.70
2022-08-02T15:29:45.659Z,26.80
2022-08-02T15:32:52.517Z,26.80
2022-08-02T15:35:56.418Z,26.80
2022-08-02T15:39:00.671Z,26.80
2022-08-02T15:42:03.967Z,26.70
2022-08-02T15:45:07.810Z,26.70
2022-08-02T15:48:18.139Z,26.60
2022-08-02T15:51:21.446Z,26.50
2022-08-02T15:54:25.709Z,26.50
2022-08-02T15:57:29.236Z,26.50
2022-08-02T16:00:32.208Z,26.40
2022-08-02T16:03:35.124Z,26.40
2022-08-02T16:06:38.128Z,26.40
2022-08-02T16:09:42.405Z,26.40
2022-08-02T16:12:45.619Z,26.40
2022-08-02T16:15:48.490Z,26.40
2022-08-02T16:18:51.697Z,26.30
2022-08-02T16:21:56.161Z,26.30
2022-08-02T16:25:00.495Z,26.30
2022-08-02T16:28:07.796Z,26.10
2022-08-02T16:31:11.705Z,26.20
2022-08-02T16:34:14.847Z,26.10
2022-08-02T16:37:17.747Z,26.10
2022-08-02T16:40:22.314Z,26.10
2022-08-02T16:43:25.229Z,26.10
2022-08-02T16:46:30.538Z,26.10
2022-08-02T16:50:06.876Z,26.10
2022-08-02T16:52:57.140Z,26.10
2022-08-02T16:56:02.459Z,26.00
2022-08-02T16:59:05.381Z,26.00
2022-08-02T17:02:18.434Z,26.00
2022-08-02T17:05:22.783Z,25.90
2022-08-02T17:08:32.834Z,25.90
2022-08-02T17:11:45.358Z,25.90
2022-08-02T17:14:55.709Z,25.80
2022-08-02T17:18:00.469Z,25.70
2022-08-02T17:21:04.745Z,25.70
2022-08-02T17:24:08.775Z,25.70
2022-08-02T17:27:13.382Z,25.60
2022-08-02T17:30:26.997Z,25.60
2022-08-02T17:33:30.142Z,25.60
2022-08-02T17:36:34.535Z,25.60
2022-08-02T17:39:43.933Z,25.60
2022-08-02T17:42:57.993Z,25.60
2022-08-02T17:46:02.418Z,25.60
2022-08-02T17:49:17.703Z,25.60
2022-08-02T17:52:51.558Z,25.60
2022-08-02T17:55:45.505Z,25.70
2022-08-02T17:58:55.373Z,25.60
2022-08-02T18:02:01.283Z,25.60
2022-08-02T18:05:11.651Z,25.60
2022-08-02T18:08:17.310Z,25.60
2022-08-02T18:11:52.401Z,25.60
2022-08-02T18:14:49.346Z,25.60
2022-08-02T18:17:54.717Z,25.50
2022-08-02T18:20:58.242Z,25.50
2022-08-02T18:24:01.167Z,25.40
2022-08-02T18:27:04.438Z,25.40
2022-08-02T18:30:10.022Z,25.30
2022-08-02T18:33:55.593Z,25.30
2022-08-02T18:36:47.141Z,25.20
2022-08-02T18:40:01.447Z,25.20
2022-08-02T18:43:07.655Z,25.10
2022-08-02T18:46:15.308Z,25.10
2022-08-02T18:49:19.035Z,25.10
2022-08-02T18:56:00.149Z,25.00
2022-08-02T18:59:07.513Z,25.00
2022-08-02T19:02:12.206Z,24.90
2022-08-02T19:05:15.840Z,24.80
2022-08-02T19:08:26.384Z,24.80
2022-08-02T19:11:35.264Z,24.70
2022-08-02T19:14:38.352Z,24.60
2022-08-02T19:17:54.820Z,24.60
2022-08-02T19:21:05.167Z,24.50
2022-08-02T19:24:08.963Z,24.50
2022-08-02T19:27:14.164Z,24.40
2022-08-02T19:30:18.284Z,24.40
2022-08-02T19:33:24.918Z,24.30
2022-08-02T19:36:28.717Z,24.30
2022-08-02T19:39:31.702Z,24.20
2022-08-02T19:44:26.857Z,24.20
2022-08-02T19:46:07.596Z,24.10
2022-08-02T19:49:40.260Z,24.10
2022-08-02T19:52:43.801Z,24.00
2022-08-02T19:56:01.623Z,24.00
2022-08-02T19:59:13.786Z,24.00
2022-08-02T20:02:18.316Z,23.90
2022-08-02T20:05:24.120Z,23.90
2022-08-02T20:08:35.331Z,23.90
2022-08-02T20:11:38.802Z,23.90
2022-08-02T20:14:51.118Z,23.90
2022-08-02T20:17:54.392Z,23.90
2022-08-02T20:20:58.875Z,23.80
2022-08-02T20:24:01.935Z,23.70
2022-08-02T20:27:05.128Z,23.70
2022-08-02T20:30:08.980Z,23.70
2022-08-02T20:33:21.319Z,23.70
2022-08-02T20:36:27.092Z,23.70
2022-08-02T20:39:43.064Z,23.70
2022-08-02T20:42:48.431Z,23.60
2022-08-02T20:45:51.824Z,23.60
2022-08-02T20:48:57.615Z,23.60
2022-08-02T20:52:23.689Z,23.60
2022-08-02T20:55:27.972Z,23.60
2022-08-02T20:58:33.952Z,23.50
2022-08-02T21:01:37.436Z,23.50
2022-08-02T21:04:42.407Z,23.50
2022-08-02T21:07:53.500Z,23.40
2022-08-02T21:10:58.193Z,23.40
2022-08-02T21:14:07.609Z,23.30
2022-08-02T21:17:12.165Z,23.30
2022-08-02T21:20:27.250Z,23.20
2022-08-02T21:23:36.582Z,23.20
2022-08-02T21:26:39.786Z,23.20
2022-08-02T21:29:43.344Z,23.10
2022-08-02T21:32:50.478Z,23.00
2022-08-02T21:35:54.503Z,23.00
2022-08-02T21:38:58.910Z,23.00
2022-08-02T21:42:01.913Z,23.00
2022-08-02T21:45:16.912Z,23.00
2022-08-02T21:48:20.577Z,23.00
2022-08-02T21:51:23.641Z,22.90
2022-08-02T21:54:28.036Z,22.90
2022-08-02T21:57:34.744Z,22.90
2022-08-02T22:00:38.007Z,22.90
2022-08-02T22:03:41.068Z,22.90
2022-08-02T22:06:58.859Z,22.90
2022-08-02T22:10:03.319Z,22.90
2022-08-02T22:13:06.317Z,22.80
2022-08-02T22:16:18.458Z,22.80
2022-08-02T22:19:21.558Z,22.80
2022-08-02T22:22:28.495Z,22.80
2022-08-02T22:25:37.368Z,22.70
2022-08-02T22:28:51.122Z,22.70
2022-08-02T22:32:03.742Z,22.60
2022-08-02T22:35:08.807Z,22.60
2022-08-02T22:38:17.336Z,22.60
2022-08-02T22:41:23.252Z,22.60
2022-08-02T22:44:26.296Z,22.60
2022-08-02T22:47:29.436Z,22.50
2022-08-02T22:50:41.622Z,22.50
2022-08-02T22:53:45.532Z,22.50
2022-08-02T22:56:49.847Z,22.50
2022-08-02T22:58:45.839Z,25.00
2022-08-02T22:59:53.335Z,22.40
2022-08-02T23:02:56.347Z,22.40
2022-08-02T23:05:59.484Z,22.30
2022-08-02T23:09:02.500Z,22.30
2022-08-02T23:12:07.324Z,22.20
2022-08-02T23:15:11.921Z,22.10
2022-08-02T23:18:40.810Z,22.10
2022-08-02T23:22:00.983Z,22.20
2022-08-02T23:25:07.297Z,22.10
2022-08-02T23:28:11.612Z,22.10
2022-08-02T23:31:31.652Z,22.10
2022-08-02T23:34:34.671Z,22.10
2022-08-02T23:38:00.050Z,22.00
2022-08-02T23:41:04.562Z,22.00
2022-08-02T23:44:14.049Z,22.00
2022-08-02T23:47:17.902Z,22.00
2022-08-02T23:50:21.239Z,22.00
2022-08-02T23:53:24.233Z,21.90
2022-08-02T23:56:27.243Z,21.80
2022-08-02T23:59:31.601Z,21.80
